KTRL/TRL METAR and TAF weather

Enter ICAO airport designator
Station Type Date Time Source
KTRL METAR 2019/10/23 19:53 UTC NOAA

KTRL 231953Z AUTO 15017KT 10SM CLR 26/10 A2998 RMK AO2 SLP148 T02610100


Station Type Date Time Source
KTRL Decoded METAR 2019/10/23 19:53 UTC NOAA

TERRELL MUNICIPAL AIRPORT, TX, United States (KTRL) 32-43N 96-16W 144M
Oct 23, 2019 - 03:53 PM EDT / 2019.10.23 1953 UTC
Wind: from the SSE (150 degrees) at 20 MPH (17 KT):0
Visibility: 10 mile(s):0
Sky conditions: clear
Temperature: 79.0 F (26.1 C)
Dew Point: 50.0 F (10.0 C)
Relative Humidity: 36%
Pressure (altimeter): 29.98 in. Hg (1015 hPa)
ob: KTRL 231953Z AUTO 15017KT 10SM CLR 26/10 A2998 RMK AO2 SLP148 T02610100
cycle: 20

Station Type Date Time Source
KTRL TAF UTC NOAA

Error!

Example: see airport list